Time;durP1;ratioP1;P1;durP2;ratioP2;P2;SDS_P1;SDS_P2;PMS_P1;PMS_P2;Temp;Humidity;BMP_temperature;BMP_pressure;BME280_temperature;BME280_humidity;BME280_pressure;Samples;Min_cycle;Max_cycle;Signal;HPM_P1;HPM_P2
2023/12/05 00:00:10;;;;;;;;;;;1.20;99.90;;;;;;5035284;28;20474;-64
2023/12/05 00:02:36;;;;;;;18.20;11.98;;;1.00;99.90;;;;;;5034663;28;19925;-65
2023/12/05 00:05:03;;;;;;;17.42;12.15;;;1.20;99.90;;;;;;5034791;28;20474;-64
2023/12/05 00:07:29;;;;;;;17.52;12.63;;;1.10;99.90;;;;;;5052451;28;20053;-64
2023/12/05 00:09:55;;;;;;;17.75;12.32;;;1.10;99.90;;;;;;5034461;28;20060;-64
2023/12/05 00:12:22;;;;;;;15.80;11.88;;;1.00;99.90;;;;;;5034785;28;20075;-65
2023/12/05 00:14:48;;;;;;;18.55;13.10;;;1.20;99.90;;;;;;5034842;28;20056;-65
2023/12/05 00:17:14;;;;;;;;;;;1.00;99.90;;;;;;5035353;28;20505;-65
2023/12/05 00:19:40;;;;;;;18.85;11.13;;;1.00;99.90;;;;;;5051293;28;19932;-65
2023/12/05 00:22:07;;;;;;;;;;;1.00;99.90;;;;;;5034987;28;20053;-65
2023/12/05 00:24:33;;;;;;;16.35;12.52;;;1.10;99.90;;;;;;5034549;28;20276;-65
2023/12/05 00:26:59;;;;;;;18.20;11.95;;;1.20;99.90;;;;;;5034407;28;20055;-65
2023/12/05 00:29:26;;;;;;;16.90;10.98;;;1.00;99.90;;;;;;5034456;28;20053;-65
2023/12/05 00:31:52;;;;;;;15.75;11.02;;;1.00;99.90;;;;;;5034051;28;20052;-64
2023/12/05 00:34:18;;;;;;;15.50;10.95;;;1.10;99.90;;;;;;5051084;28;20048;-65
2023/12/05 00:36:45;;;;;;;18.25;12.65;;;1.20;99.90;;;;;;5034757;28;20467;-65
2023/12/05 00:39:11;;;;;;;;;;;1.20;99.90;;;;;;5018417;28;20041;-65
2023/12/05 00:41:37;;;;;;;16.52;12.45;;;1.10;99.90;;;;;;5033774;28;20272;-64
2023/12/05 00:44:04;;;;;;;18.67;11.55;;;1.00;99.90;;;;;;5034416;28;20132;-64
2023/12/05 00:46:30;;;;;;;16.48;11.23;;;1.00;99.90;;;;;;5052214;28;20044;-65
2023/12/05 00:48:57;;;;;;;17.02;12.55;;;1.00;99.90;;;;;;5030573;28;20054;-64
2023/12/05 00:51:23;;;;;;;16.15;12.15;;;1.20;99.90;;;;;;5046649;28;20488;-64
2023/12/05 00:53:49;;;;;;;16.52;11.57;;;1.20;99.90;;;;;;5030956;28;20079;-65
2023/12/05 00:56:17;;;;;;;16.17;12.48;;;1.20;99.90;;;;;;5047447;28;20397;-64
2023/12/05 00:58:43;;;;;;;15.70;11.10;;;1.20;99.90;;;;;;5030835;28;20149;-64
2023/12/05 01:01:09;;;;;;;15.50;11.35;;;1.10;99.90;;;;;;5030037;28;20046;-64
2023/12/05 01:03:36;;;;;;;15.18;10.68;;;1.10;99.90;;;;;;5030918;28;20072;-64
2023/12/05 01:06:02;;;;;;;;;;;1.10;99.90;;;;;;5030818;28;20057;-64
2023/12/05 01:08:28;;;;;;;15.98;10.95;;;1.20;99.90;;;;;;5030449;28;19932;-64
2023/12/05 01:10:55;;;;;;;15.10;10.98;;;1.20;99.90;;;;;;5046233;28;20045;-64
2023/12/05 01:13:21;;;;;;;15.13;10.90;;;1.10;99.90;;;;;;5030698;28;20053;-64
2023/12/05 01:15:47;;;;;;;14.70;10.90;;;1.10;99.90;;;;;;5047346;28;20049;-63
2023/12/05 01:18:13;;;;;;;15.77;10.95;;;1.00;99.90;;;;;;5031451;28;20053;-64
2023/12/05 01:20:40;;;;;;;16.48;11.18;;;1.00;99.90;;;;;;5029835;28;20053;-64
2023/12/05 01:23:06;;;;;;;;;;;1.00;99.90;;;;;;5014151;28;20053;-65
2023/12/05 01:25:32;;;;;;;15.05;11.25;;;1.00;99.90;;;;;;5030084;28;19921;-64
2023/12/05 01:27:59;;;;;;;16.63;11.77;;;1.10;99.90;;;;;;5030155;28;20376;-65
2023/12/05 01:30:25;;;;;;;;;;;1.10;99.90;;;;;;5030576;28;20056;-64
2023/12/05 01:32:51;;;;;;;15.13;11.43;;;0.80;99.90;;;;;;5030968;28;19928;-64
2023/12/05 01:35:17;;;;;;;;;;;0.80;99.90;;;;;;5031315;28;20381;-64
2023/12/05 01:37:45;;;;;;;12.95;10.30;;;1.00;99.90;;;;;;5030898;28;19925;-63
2023/12/05 01:40:11;;;;;;;14.35;10.98;;;0.80;99.90;;;;;;5029720;28;20476;-64
2023/12/05 01:42:38;;;;;;;15.10;11.40;;;1.00;99.90;;;;;;5029520;28;20145;-63
2023/12/05 01:45:05;;;;;;;16.38;11.35;;;0.80;99.90;;;;;;5029976;28;20138;-64
2023/12/05 01:47:35;;;;;;;15.18;11.02;;;1.00;99.90;;;;;;5013646;28;20057;-64
2023/12/05 01:50:04;;;;;;;17.45;12.25;;;0.80;99.90;;;;;;5029578;28;20037;-64
2023/12/05 01:52:31;;;;;;;17.00;12.00;;;1.00;99.90;;;;;;5045812;28;20133;-64
2023/12/05 01:54:57;;;;;;;15.32;11.63;;;1.00;99.90;;;;;;5029963;28;20136;-65
2023/12/05 01:57:24;;;;;;;17.02;11.75;;;0.80;99.90;;;;;;5029614;28;20045;-64
2023/12/05 01:59:52;;;;;;;15.95;12.48;;;1.00;99.90;;;;;;5028863;28;20042;-64
2023/12/05 02:02:19;;;;;;;15.30;11.40;;;1.00;99.90;;;;;;5045829;28;20059;-64
2023/12/05 02:04:45;;;;;;;16.52;13.00;;;0.90;99.90;;;;;;5029878;28;20055;-64
2023/12/05 02:07:13;;;;;;;15.45;11.43;;;0.80;99.90;;;;;;5012768;28;20496;-66
2023/12/05 02:09:39;;;;;;;14.60;10.98;;;0.90;99.90;;;;;;5029416;28;20089;-65
2023/12/05 02:12:06;;;;;;;;;;;0.80;99.90;;;;;;5029668;28;20053;-65
2023/12/05 02:14:32;;;;;;;16.50;11.93;;;0.90;99.90;;;;;;5029554;28;19929;-64
2023/12/05 02:17:01;;;;;;;16.23;11.55;;;0.80;99.90;;;;;;5045942;28;20373;-64
2023/12/05 02:19:43;;;;;;;18.08;13.07;;;0.80;99.90;;;;;;5029235;28;20049;-64
2023/12/05 02:22:31;;;;;;;17.73;12.38;;;0.90;99.90;;;;;;5008967;28;20101;-63
2023/12/05 02:25:06;;;;;;;17.55;12.02;;;0.80;99.90;;;;;;5009548;28;20069;-64
2023/12/05 02:27:37;;;;;;;16.95;11.93;;;0.80;99.90;;;;;;5010519;28;20065;-65
2023/12/05 02:30:04;;;;;;;17.40;12.35;;;0.80;99.90;;;;;;5013605;28;20065;-64
2023/12/05 02:32:30;;;;;;;18.50;12.18;;;1.00;99.90;;;;;;5045364;28;20046;-64
2023/12/05 02:34:57;;;;;;;17.05;13.40;;;0.90;99.90;;;;;;5029374;28;20477;-64
2023/12/05 02:37:55;;;;;;;20.58;15.10;;;0.90;99.90;;;;;;5045399;28;20053;-64
2023/12/05 02:40:30;;;;;;;19.05;13.77;;;1.00;99.90;;;;;;5015284;28;20041;-64
2023/12/05 02:42:57;;;;;;;19.27;14.15;;;1.00;99.90;;;;;;5028476;28;20405;-64
2023/12/05 02:45:28;;;;;;;20.38;13.23;;;1.00;99.90;;;;;;5029075;28;20469;-64
2023/12/05 02:47:56;;;;;;;17.73;12.05;;;1.00;99.90;;;;;;5031217;28;20455;-64
2023/12/05 02:50:22;;;;;;;18.05;12.45;;;1.10;99.90;;;;;;5032101;28;20460;-64
2023/12/05 02:52:48;;;;;;;18.90;13.85;;;0.90;99.90;;;;;;5031838;28;20427;-65
2023/12/05 02:55:15;;;;;;;19.38;13.27;;;0.90;99.90;;;;;;5032255;28;20059;-64
2023/12/05 02:57:41;;;;;;;18.83;13.38;;;0.90;99.90;;;;;;5049869;28;20049;-64
2023/12/05 03:00:08;;;;;;;18.80;13.35;;;0.90;99.90;;;;;;5031674;28;20091;-64
2023/12/05 03:02:34;;;;;;;18.77;13.27;;;0.80;99.90;;;;;;5031885;28;20067;-64
2023/12/05 03:05:01;;;;;;;18.67;12.43;;;0.90;99.90;;;;;;5049866;28;20045;-64
2023/12/05 03:07:28;;;;;;;18.95;13.48;;;1.20;99.90;;;;;;5031625;28;20049;-64
2023/12/05 03:09:54;;;;;;;19.25;12.80;;;0.90;99.90;;;;;;5048541;28;20056;-64
2023/12/05 03:12:20;;;;;;;;;;;1.00;99.90;;;;;;5033408;28;20183;-64
2023/12/05 03:14:46;;;;;;;18.15;12.98;;;0.90;99.90;;;;;;5036046;28;19932;-64
2023/12/05 03:17:13;;;;;;;18.52;14.07;;;0.90;99.90;;;;;;5053585;28;20057;-63
2023/12/05 03:19:39;;;;;;;;;;;0.80;99.90;;;;;;5036065;28;20045;-64
2023/12/05 03:22:05;;;;;;;19.23;13.75;;;1.00;99.90;;;;;;5067876;28;20004;-66
2023/12/05 03:24:32;;;;;;;18.58;12.95;;;1.00;99.90;;;;;;5036212;28;20049;-63
2023/12/05 03:26:58;;;;;;;20.25;13.40;;;1.10;99.90;;;;;;5035397;28;20049;-63
2023/12/05 03:29:24;;;;;;;;;;;1.00;99.90;;;;;;5036093;28;20424;-64
2023/12/05 03:31:51;;;;;;;18.63;13.07;;;1.10;99.90;;;;;;5034889;28;19978;-64
2023/12/05 03:34:17;;;;;;;21.30;16.17;;;0.90;99.90;;;;;;5035558;28;20079;-63
2023/12/05 03:36:43;;;;;;;19.05;13.00;;;1.00;99.90;;;;;;5051652;28;20072;-64
2023/12/05 03:39:10;;;;;;;19.88;14.43;;;1.00;99.90;;;;;;5035417;28;20060;-64
2023/12/05 03:41:36;;;;;;;18.55;13.55;;;1.00;99.90;;;;;;5034472;28;20048;-64
2023/12/05 03:44:02;;;;;;;;;;;1.00;99.90;;;;;;5036038;28;20287;-64
2023/12/05 03:46:29;;;;;;;18.92;13.38;;;0.90;99.90;;;;;;5035463;28;20016;-64
2023/12/05 03:48:55;;;;;;;;;;;0.80;99.90;;;;;;5032157;28;20144;-64
2023/12/05 03:51:21;;;;;;;19.20;14.27;;;1.00;99.90;;;;;;5031297;28;19928;-64
2023/12/05 03:53:48;;;;;;;19.65;13.63;;;0.90;99.90;;;;;;5032601;28;20152;-64
2023/12/05 03:56:14;;;;;;;21.77;14.65;;;1.00;99.90;;;;;;5031915;28;20049;-64
2023/12/05 03:58:41;;;;;;;;;;;1.00;99.90;;;;;;5032497;28;20042;-64
2023/12/05 04:01:08;;;;;;;19.80;14.07;;;0.90;99.90;;;;;;5047902;28;19932;-64
2023/12/05 04:03:35;;;;;;;20.45;14.27;;;1.00;99.90;;;;;;5031968;28;20045;-64
2023/12/05 04:06:01;;;;;;;19.13;13.65;;;1.10;99.90;;;;;;5031651;28;20053;-64
2023/12/05 04:08:28;;;;;;;18.38;12.93;;;1.10;99.90;;;;;;5030229;28;20111;-65
2023/12/05 04:10:54;;;;;;;23.08;14.93;;;1.10;99.90;;;;;;5046791;28;20056;-64
2023/12/05 04:13:20;;;;;;;19.05;13.95;;;1.10;99.90;;;;;;5030969;28;20159;-65
2023/12/05 04:15:46;;;;;;;;;;;1.10;99.90;;;;;;5031045;28;20054;-65
2023/12/05 04:18:13;;;;;;;18.77;13.63;;;1.00;99.90;;;;;;5031333;28;19932;-64
2023/12/05 04:20:39;;;;;;;18.73;13.15;;;1.10;99.90;;;;;;5030836;28;20461;-64
2023/12/05 04:23:05;;;;;;;19.25;13.27;;;1.00;99.90;;;;;;5031045;28;20056;-64
2023/12/05 04:25:31;;;;;;;;;;;1.00;99.90;;;;;;5048413;28;20045;-65
2023/12/05 04:27:58;;;;;;;16.27;12.52;;;1.00;99.90;;;;;;5048057;28;20231;-64
2023/12/05 04:30:24;;;;;;;18.92;13.23;;;1.00;99.90;;;;;;5031060;28;20051;-64
2023/12/05 04:32:51;;;;;;;18.42;13.40;;;1.10;99.90;;;;;;5031557;28;20052;-65
2023/12/05 04:35:17;;;;;;;;;;;1.10;99.90;;;;;;5031801;28;20056;-64
2023/12/05 04:37:43;;;;;;;16.85;12.45;;;1.10;99.90;;;;;;5014832;28;19937;-64
2023/12/05 04:40:10;;;;;;;20.08;15.40;;;0.90;99.90;;;;;;5030990;28;20374;-64
2023/12/05 04:42:37;;;;;;;18.48;13.10;;;1.00;99.90;;;;;;5047614;28;20049;-64
2023/12/05 04:45:04;;;;;;;21.27;14.25;;;1.00;99.90;;;;;;5031447;28;20493;-64
2023/12/05 04:47:30;;;;;;;17.67;13.40;;;1.10;99.90;;;;;;5031495;28;20428;-64
2023/12/05 04:49:57;;;;;;;;;;;1.10;99.90;;;;;;5047653;28;20064;-63
2023/12/05 04:52:24;;;;;;;19.48;14.68;;;0.90;99.90;;;;;;5031372;28;20325;-64
2023/12/05 04:54:50;;;;;;;20.75;15.30;;;1.10;99.90;;;;;;5030942;28;20057;-66
2023/12/05 04:57:16;;;;;;;;;;;0.90;99.90;;;;;;5031095;28;20057;-64
2023/12/05 04:59:43;;;;;;;19.10;13.02;;;0.90;99.90;;;;;;5031533;28;20446;-63
2023/12/05 05:02:11;;;;;;;20.10;14.35;;;0.90;99.90;;;;;;5030273;28;20069;-64
2023/12/05 05:04:38;;;;;;;18.85;13.38;;;1.00;99.90;;;;;;5030902;28;20488;-63
2023/12/05 05:07:04;;;;;;;21.70;15.15;;;1.00;99.90;;;;;;5030370;28;20140;-64
2023/12/05 05:09:31;;;;;;;22.00;15.52;;;0.90;99.90;;;;;;5031470;28;20056;-63
2023/12/05 05:11:58;;;;;;;22.15;16.13;;;1.10;99.90;;;;;;5047062;28;20433;-64
2023/12/05 05:14:24;;;;;;;21.60;15.23;;;0.90;99.90;;;;;;5030697;28;20068;-63
2023/12/05 05:16:51;;;;;;;18.58;13.75;;;0.90;99.90;;;;;;5030608;28;20132;-64
2023/12/05 05:19:17;;;;;;;20.92;14.82;;;1.10;99.90;;;;;;5031860;28;20060;-65
2023/12/05 05:21:43;;;;;;;;;;;1.10;99.90;;;;;;5046912;28;20056;-64
2023/12/05 05:24:10;;;;;;;21.45;14.45;;;1.00;99.90;;;;;;5031206;28;19955;-64
2023/12/05 05:26:36;;;;;;;21.05;15.20;;;1.10;99.90;;;;;;5030156;28;20049;-63
2023/12/05 05:29:03;;;;;;;;;;;1.00;99.90;;;;;;5030998;28;20060;-65
2023/12/05 05:31:29;;;;;;;21.92;14.88;;;1.00;99.90;;;;;;5030599;28;19936;-63
2023/12/05 05:33:55;;;;;;;;;;;1.00;99.90;;;;;;5030694;28;20458;-64
2023/12/05 05:36:21;;;;;;;21.52;16.13;;;1.10;99.90;;;;;;5029504;28;20277;-64
2023/12/05 05:38:48;;;;;;;23.15;14.70;;;1.10;99.90;;;;;;5030229;28;20049;-64
2023/12/05 05:41:14;;;;;;;;;;;1.10;99.90;;;;;;5046767;28;20056;-64
2023/12/05 05:43:40;;;;;;;22.20;15.30;;;1.10;99.90;;;;;;5030229;28;19967;-64
2023/12/05 05:46:07;;;;;;;21.70;15.82;;;0.90;99.90;;;;;;5030228;28;20056;-64
2023/12/05 05:48:33;;;;;;;20.92;15.63;;;1.00;99.90;;;;;;5029570;28;20453;-64
2023/12/05 05:51:00;;;;;;;21.52;15.15;;;1.10;99.90;;;;;;5029059;28;20049;-65
2023/12/05 05:53:26;;;;;;;23.20;15.07;;;1.10;99.90;;;;;;5029153;28;20056;-64
2023/12/05 05:55:53;;;;;;;23.02;16.05;;;1.20;99.90;;;;;;5028937;28;20125;-64
2023/12/05 05:58:19;;;;;;;24.23;16.58;;;1.00;99.90;;;;;;5029455;28;20140;-64
2023/12/05 06:00:46;;;;;;;;;;;1.10;99.90;;;;;;5034535;28;20052;-64
2023/12/05 06:03:12;;;;;;;23.90;16.35;;;0.90;99.90;;;;;;5040526;28;19924;-64
2023/12/05 06:05:38;;;;;;;23.48;15.43;;;1.10;99.90;;;;;;5035734;28;20045;-65
2023/12/05 06:08:04;;;;;;;;;;;1.00;99.90;;;;;;5030137;28;20045;-65
2023/12/05 06:10:31;;;;;;;23.85;15.65;;;1.10;99.90;;;;;;5062117;28;20271;-63
2023/12/05 06:12:57;;;;;;;;;;;1.10;99.90;;;;;;5063507;28;20057;-64
2023/12/05 06:15:23;;;;;;;25.13;16.55;;;1.10;99.90;;;;;;5029099;28;19949;-64
2023/12/05 06:17:49;;;;;;;;;;;1.10;99.90;;;;;;5030533;28;20065;-65
2023/12/05 06:20:16;;;;;;;23.70;16.20;;;1.10;99.90;;;;;;5062294;28;19925;-64
2023/12/05 06:22:42;;;;;;;25.80;16.63;;;0.90;99.90;;;;;;5021157;28;20041;-65
2023/12/05 06:25:08;;;;;;;26.40;18.92;;;1.00;99.90;;;;;;5045694;28;20293;-64
2023/12/05 06:27:35;;;;;;;;;;;1.00;99.90;;;;;;5030358;28;20484;-64
2023/12/05 06:30:01;;;;;;;26.45;16.50;;;1.10;99.90;;;;;;5062649;28;19967;-63
2023/12/05 06:32:27;;;;;;;26.27;17.00;;;0.90;99.90;;;;;;5028832;28;20057;-64
2023/12/05 06:34:54;;;;;;;;;;;1.00;99.90;;;;;;5029975;28;20068;-65
2023/12/05 06:37:21;;;;;;;27.15;17.30;;;1.00;99.90;;;;;;5029613;28;20345;-64
2023/12/05 06:39:47;;;;;;;27.60;18.67;;;1.00;99.90;;;;;;5046039;28;20059;-65
2023/12/05 06:42:13;;;;;;;28.25;17.63;;;1.10;99.90;;;;;;5029609;28;20088;-65
2023/12/05 06:44:40;;;;;;;;;;;1.00;99.90;;;;;;5046334;28;20498;-64
2023/12/05 06:47:06;;;;;;;28.77;18.58;;;1.10;99.90;;;;;;5045270;28;19925;-65
2023/12/05 06:49:32;;;;;;;27.92;17.98;;;1.10;99.90;;;;;;5028255;28;20441;-66
2023/12/05 06:52:00;;;;;;;27.88;17.38;;;0.90;99.90;;;;;;5041223;28;20187;-66
2023/12/05 06:54:26;;;;;;;26.40;19.77;;;1.00;99.90;;;;;;5026696;28;20053;-66
2023/12/05 06:56:53;;;;;;;26.15;18.13;;;1.00;99.90;;;;;;5027706;28;20057;-64
2023/12/05 06:59:19;;;;;;;28.40;19.33;;;1.00;99.90;;;;;;5027511;28;20064;-65
2023/12/05 07:01:46;;;;;;;28.13;17.90;;;1.10;99.90;;;;;;5032161;28;20095;-65
2023/12/05 07:04:13;;;;;;;27.42;18.60;;;0.90;99.90;;;;;;5028642;28;20698;-66
2023/12/05 07:06:39;;;;;;;29.67;18.55;;;1.10;99.90;;;;;;5028737;28;20053;-64
2023/12/05 07:09:05;;;;;;;;;;;0.90;99.90;;;;;;5029531;28;20080;-66
2023/12/05 07:11:32;;;;;;;26.15;17.35;;;1.00;99.90;;;;;;5044683;28;19921;-65
2023/12/05 07:13:58;;;;;;;29.40;18.50;;;1.10;99.90;;;;;;5045252;28;20492;-64
2023/12/05 07:16:24;;;;;;;;;;;0.90;99.90;;;;;;5029145;28;20064;-65
2023/12/05 07:18:54;;;;;;;26.98;17.67;;;0.90;99.90;;;;;;5028849;28;20025;-64
2023/12/05 07:21:20;;;;;;;31.67;19.40;;;0.90;99.90;;;;;;5028407;28;20049;-65
2023/12/05 07:23:47;;;;;;;30.35;19.90;;;1.10;99.90;;;;;;5028661;28;20042;-65
2023/12/05 07:26:13;;;;;;;;;;;1.10;99.90;;;;;;5029683;28;20053;-65
2023/12/05 07:28:39;;;;;;;28.05;18.77;;;1.00;99.90;;;;;;5028954;28;19929;-65
2023/12/05 07:31:06;;;;;;;30.02;18.73;;;0.90;99.90;;;;;;5028083;28;20057;-65
2023/12/05 07:33:32;;;;;;;28.02;17.92;;;0.90;99.90;;;;;;5028832;28;20107;-64
2023/12/05 07:35:58;;;;;;;29.92;18.33;;;1.10;99.90;;;;;;5028719;28;20633;-65
2023/12/05 07:38:25;;;;;;;27.00;19.77;;;0.90;99.90;;;;;;5028275;28;20348;-65
2023/12/05 07:40:52;;;;;;;;;;;1.10;99.90;;;;;;5028715;28;20038;-64
2023/12/05 07:43:18;;;;;;;26.50;17.50;;;1.10;99.90;;;;;;5029009;28;19921;-64
2023/12/05 07:45:44;;;;;;;;;;;1.10;99.90;;;;;;5029344;28;20065;-65
2023/12/05 07:48:11;;;;;;;26.77;17.50;;;1.00;99.90;;;;;;5028172;28;19932;-64
2023/12/05 07:50:37;;;;;;;26.23;18.08;;;1.10;99.90;;;;;;5027830;28;20469;-64
2023/12/05 07:53:03;;;;;;;27.70;17.88;;;1.00;99.90;;;;;;5028713;28;20053;-65
2023/12/05 07:55:30;;;;;;;;;;;1.10;99.90;;;;;;5028990;28;20053;-65
2023/12/05 07:57:56;;;;;;;26.10;16.20;;;1.10;99.90;;;;;;5012556;28;19932;-65
2023/12/05 08:00:22;;;;;;;;;;;0.90;99.90;;;;;;5031862;28;20052;-65
2023/12/05 08:02:48;;;;;;;29.70;18.88;;;1.00;99.90;;;;;;5032300;28;19924;-65
2023/12/05 08:05:15;;;;;;;29.15;17.50;;;0.90;99.90;;;;;;5032052;28;20045;-64
2023/12/05 08:07:42;;;;;;;29.40;16.90;;;0.80;99.90;;;;;;5031980;28;20489;-65
2023/12/05 08:10:10;;;;;;;;;;;1.10;99.90;;;;;;5047925;28;20058;-64
2023/12/05 08:12:36;;;;;;;27.80;16.95;;;1.00;99.90;;;;;;5031742;28;19921;-64
2023/12/05 08:15:04;;;;;;;26.38;17.60;;;1.10;99.90;;;;;;5048216;28;20057;-64
2023/12/05 08:17:30;;;;;;;24.77;16.15;;;0.90;99.90;;;;;;5031498;28;20057;-64
2023/12/05 08:19:57;;;;;;;27.90;18.42;;;1.10;99.90;;;;;;5047874;28;20049;-64
2023/12/05 08:22:25;;;;;;;28.65;19.60;;;0.90;99.90;;;;;;5031873;28;20433;-64
2023/12/05 08:24:51;;;;;;;30.83;18.13;;;1.00;99.90;;;;;;5031832;28;20041;-64
2023/12/05 08:27:17;;;;;;;;;;;1.10;99.90;;;;;;5032202;28;20049;-64
2023/12/05 08:29:44;;;;;;;25.45;16.35;;;1.10;99.90;;;;;;5047981;28;19987;-64
2023/12/05 08:32:10;;;;;;;28.65;18.55;;;0.90;99.90;;;;;;5030806;28;20049;-64
2023/12/05 08:34:36;;;;;;;25.08;16.67;;;1.00;99.90;;;;;;5031394;28;20053;-65
2023/12/05 08:37:03;;;;;;;30.00;17.75;;;1.10;99.90;;;;;;5031310;28;20060;-63
2023/12/05 08:39:29;;;;;;;29.08;17.42;;;1.00;99.90;;;;;;5031157;28;20502;-64
2023/12/05 08:41:59;;;;;;;28.63;19.27;;;1.10;99.90;;;;;;5030617;28;20105;-63
2023/12/05 08:44:26;;;;;;;29.42;19.63;;;1.00;99.90;;;;;;5014875;28;20060;-64
2023/12/05 08:46:52;;;;;;;28.55;18.15;;;1.20;99.90;;;;;;5031396;28;20453;-64
2023/12/05 08:49:18;;;;;;;28.25;18.08;;;1.10;99.90;;;;;;5047461;28;20061;-63
2023/12/05 08:51:47;;;;;;;31.50;20.38;;;1.20;99.90;;;;;;5046716;28;20054;-64
2023/12/05 08:54:13;;;;;;;31.73;18.38;;;1.20;99.90;;;;;;5031349;28;20065;-64
2023/12/05 08:56:40;;;;;;;28.70;17.92;;;1.20;99.90;;;;;;5047341;28;20064;-63
2023/12/05 08:59:06;;;;;;;28.83;19.00;;;1.20;99.90;;;;;;5030894;28;20413;-65
2023/12/05 09:01:32;;;;;;;31.90;18.58;;;1.20;99.90;;;;;;5030090;28;20052;-63
2023/12/05 09:03:59;;;;;;;27.50;16.80;;;1.00;99.90;;;;;;5031119;28;20060;-64
2023/12/05 09:06:25;;;;;;;28.25;18.95;;;1.00;99.90;;;;;;5030586;28;20053;-64
2023/12/05 09:08:51;;;;;;;29.92;17.45;;;1.10;99.90;;;;;;5030960;28;20045;-63
2023/12/05 09:11:18;;;;;;;26.45;16.35;;;1.00;99.90;;;;;;5046795;28;20064;-64
2023/12/05 09:13:45;;;;;;;29.25;19.80;;;1.20;99.90;;;;;;5030910;28;20386;-63
2023/12/05 09:16:11;;;;;;;28.13;17.88;;;1.10;99.90;;;;;;5030522;28;20069;-64
2023/12/05 09:18:38;;;;;;;27.63;17.67;;;1.20;99.90;;;;;;5047146;28;20347;-64
2023/12/05 09:21:04;;;;;;;30.15;19.27;;;1.20;99.90;;;;;;5029655;28;20064;-64
2023/12/05 09:23:31;;;;;;;28.55;17.83;;;1.20;99.90;;;;;;5030594;28;20049;-64
2023/12/05 09:25:58;;;;;;;28.20;18.17;;;1.10;99.90;;;;;;5030135;28;20053;-63
2023/12/05 09:28:24;;;;;;;28.23;19.35;;;1.10;99.90;;;;;;5030359;28;20045;-64
2023/12/05 09:30:50;;;;;;;29.00;17.77;;;1.10;99.90;;;;;;5046315;28;20056;-64
2023/12/05 09:33:16;;;;;;;29.23;18.70;;;1.10;99.90;;;;;;5030390;28;20493;-64
2023/12/05 09:35:43;;;;;;;30.90;19.13;;;1.20;99.90;;;;;;5046546;28;20068;-63
2023/12/05 09:38:10;;;;;;;29.05;18.10;;;1.20;99.90;;;;;;5029998;28;20057;-63
2023/12/05 09:40:36;;;;;;;29.00;17.90;;;1.30;99.90;;;;;;5030223;28;20476;-64
2023/12/05 09:43:06;;;;;;;31.23;18.35;;;1.20;99.90;;;;;;5030111;28;20057;-64
2023/12/05 09:45:43;;;;;;;30.85;20.35;;;1.20;99.90;;;;;;5030224;28;20079;-64
2023/12/05 09:48:11;;;;;;;29.13;17.90;;;1.10;99.90;;;;;;5035509;28;20045;-64
2023/12/05 09:50:38;;;;;;;28.25;18.08;;;1.10;99.90;;;;;;5049279;28;20361;-64
2023/12/05 09:53:09;;;;;;;28.98;19.60;;;1.00;99.90;;;;;;5033348;28;20083;-64
2023/12/05 09:55:37;;;;;;;32.05;20.38;;;1.10;99.90;;;;;;5033251;28;20052;-64
2023/12/05 09:58:04;;;;;;;33.22;19.08;;;1.20;99.90;;;;;;5033379;28;20057;-64
2023/12/05 10:00:30;;;;;;;29.08;17.45;;;1.20;99.90;;;;;;5032311;28;20041;-64
2023/12/05 10:03:02;;;;;;;28.02;19.27;;;1.00;99.90;;;;;;5033231;28;20075;-63
2023/12/05 10:05:32;;;;;;;28.30;16.95;;;1.20;99.90;;;;;;5033350;28;20053;-63
2023/12/05 10:07:59;;;;;;;29.75;19.58;;;1.20;99.90;;;;;;5032827;28;20492;-63
2023/12/05 10:10:27;;;;;;;32.25;20.23;;;1.10;99.90;;;;;;5049955;28;20068;-64
2023/12/05 10:12:56;;;;;;;29.90;17.67;;;1.20;99.90;;;;;;5032858;28;20056;-64
2023/12/05 10:15:23;;;;;;;32.92;20.48;;;1.20;99.90;;;;;;5032603;28;20056;-64
2023/12/05 10:17:50;;;;;;;29.35;18.48;;;1.10;99.90;;;;;;5033061;28;20098;-64
2023/12/05 10:20:16;;;;;;;30.17;18.08;;;1.10;99.90;;;;;;5031831;28;20449;-64
2023/12/05 10:22:43;;;;;;;30.35;17.42;;;1.20;99.90;;;;;;5032188;28;20460;-65
2023/12/05 10:25:10;;;;;;;31.77;18.27;;;1.10;99.90;;;;;;5032526;28;20055;-65
2023/12/05 10:27:37;;;;;;;28.60;18.02;;;1.20;99.90;;;;;;5032794;28;20064;-64
2023/12/05 10:30:04;;;;;;;32.30;21.23;;;1.30;99.90;;;;;;5032199;28;20053;-64
2023/12/05 10:32:31;;;;;;;31.63;19.67;;;1.10;99.90;;;;;;5032312;28;20075;-63
2023/12/05 10:34:58;;;;;;;30.67;18.20;;;1.20;99.90;;;;;;5032422;28;20053;-64
2023/12/05 10:37:25;;;;;;;28.80;17.42;;;1.30;99.90;;;;;;5032589;28;20061;-65
2023/12/05 10:39:53;;;;;;;31.33;17.85;;;1.30;99.90;;;;;;5032250;28;20469;-65
2023/12/05 10:42:20;;;;;;;30.02;19.00;;;1.40;99.90;;;;;;5032602;28;20527;-65
2023/12/05 10:44:47;;;;;;;29.75;18.98;;;1.40;99.90;;;;;;5033054;28;20167;-64
2023/12/05 10:47:14;;;;;;;28.33;17.98;;;1.30;99.90;;;;;;5016350;28;20048;-65
2023/12/05 10:49:42;;;;;;;28.23;16.73;;;1.40;99.90;;;;;;5032094;28;20056;-64
2023/12/05 10:52:12;;;;;;;28.27;17.77;;;1.50;99.90;;;;;;5031551;28;20056;-64
2023/12/05 10:54:39;;;;;;;28.52;18.10;;;1.30;99.90;;;;;;5032534;28;20053;-64
2023/12/05 10:57:11;;;;;;;29.63;18.02;;;1.30;99.90;;;;;;5032618;28;20064;-64
2023/12/05 10:59:40;;;;;;;31.88;18.40;;;1.40;99.90;;;;;;5032687;28;20095;-65
2023/12/05 11:02:13;;;;;;;27.65;16.88;;;1.40;99.90;;;;;;5031548;28;20147;-65
2023/12/05 11:04:43;;;;;;;27.98;18.27;;;1.60;99.90;;;;;;5032630;28;20044;-65
2023/12/05 11:07:12;;;;;;;24.10;16.48;;;1.50;99.90;;;;;;5048770;28;20063;-65
2023/12/05 11:09:42;;;;;;;30.02;19.20;;;1.40;99.90;;;;;;5032590;28;20053;-65
2023/12/05 11:12:09;;;;;;;27.75;17.00;;;1.40;99.90;;;;;;5032173;28;20052;-65
2023/12/05 11:14:42;;;;;;;27.67;16.58;;;1.60;99.90;;;;;;5065634;28;20159;-65
2023/12/05 11:17:12;;;;;;;28.67;17.80;;;1.50;99.90;;;;;;5032565;28;20045;-65
2023/12/05 11:19:51;;;;;;;28.67;17.85;;;1.60;99.90;;;;;;5031980;28;20068;-65
2023/12/05 11:22:34;;;;;;;24.55;17.00;;;1.50;99.90;;;;;;5032093;28;20048;-65
2023/12/05 11:25:09;;;;;;;25.10;17.90;;;1.40;99.90;;;;;;5032265;28;20373;-64
2023/12/05 11:27:45;;;;;;;25.23;17.17;;;1.50;99.90;;;;;;5032460;28;20057;-64
2023/12/05 11:30:33;;;;;;;31.85;19.02;;;1.50;99.90;;;;;;5048419;28;20075;-64
2023/12/05 11:33:31;;;;;;;31.40;18.00;;;1.60;99.90;;;;;;5012781;28;20045;-64
2023/12/05 11:36:34;;;;;;;28.40;17.70;;;1.60;99.90;;;;;;5048613;28;20067;-64
2023/12/05 11:39:03;;;;;;;27.00;17.75;;;1.40;99.90;;;;;;5003443;28;20072;-64
2023/12/05 11:41:30;;;;;;;27.85;16.52;;;1.50;99.90;;;;;;5043288;28;20044;-64
2023/12/05 11:44:11;;;;;;;29.48;18.67;;;1.30;99.90;;;;;;5036002;28;20060;-63
2023/12/05 11:46:40;;;;;;;29.42;19.60;;;1.40;99.90;;;;;;5052519;28;20345;-63
2023/12/05 11:49:07;;;;;;;30.13;19.08;;;1.40;99.90;;;;;;5035409;28;20056;-64
2023/12/05 11:51:35;;;;;;;27.58;17.05;;;1.30;99.90;;;;;;5051634;28;20052;-64
2023/12/05 11:54:05;;;;;;;29.35;18.70;;;1.30;99.90;;;;;;5035651;28;20049;-65
2023/12/05 11:56:32;;;;;;;27.38;17.02;;;1.40;99.90;;;;;;5035492;28;20056;-65
2023/12/05 11:59:13;;;;;;;28.00;17.77;;;1.40;99.90;;;;;;5035559;28;20056;-64
2023/12/05 12:01:40;;;;;;;27.08;18.10;;;1.40;99.90;;;;;;5051209;28;20049;-65
2023/12/05 12:04:26;;;;;;;25.95;16.02;;;1.30;99.90;;;;;;5035233;28;20048;-65
2023/12/05 12:06:53;;;;;;;28.90;17.70;;;1.30;99.90;;;;;;5035355;28;20049;-65
2023/12/05 12:09:19;;;;;;;25.48;15.95;;;1.40;99.90;;;;;;5035621;28;20136;-65
2023/12/05 12:11:47;;;;;;;24.90;15.52;;;1.30;99.90;;;;;;5034509;28;20057;-64
2023/12/05 12:14:14;;;;;;;24.42;16.33;;;1.40;99.90;;;;;;5035987;28;20067;-65
2023/12/05 12:16:41;;;;;;;26.85;16.92;;;1.40;99.90;;;;;;5035887;28;20060;-64
2023/12/05 12:19:15;;;;;;;25.50;16.42;;;1.30;99.90;;;;;;5035518;28;20079;-64
2023/12/05 12:21:44;;;;;;;23.83;17.25;;;1.40;99.90;;;;;;5050668;28;20623;-64
2023/12/05 12:24:22;;;;;;;27.65;18.45;;;1.40;99.90;;;;;;5034913;28;20052;-65
2023/12/05 12:26:56;;;;;;;25.77;16.02;;;1.30;99.90;;;;;;5051532;28;20055;-64
2023/12/05 12:29:23;;;;;;;26.48;16.70;;;1.20;99.90;;;;;;5034765;28;20048;-65
2023/12/05 12:31:52;;;;;;;25.17;16.63;;;1.20;99.90;;;;;;5034322;28;20077;-65
2023/12/05 12:34:26;;;;;;;27.27;16.80;;;1.20;99.90;;;;;;5035044;28;20071;-65
2023/12/05 12:36:53;;;;;;;27.23;16.90;;;1.20;99.90;;;;;;5034943;28;20051;-65
2023/12/05 12:39:20;;;;;;;25.65;16.90;;;1.30;99.90;;;;;;5034987;28;20057;-65
2023/12/05 12:41:47;;;;;;;29.25;17.17;;;1.20;99.90;;;;;;5034292;28;20071;-64
2023/12/05 12:44:16;;;;;;;53.90;18.90;;;1.30;99.90;;;;;;5034476;28;20082;-64
2023/12/05 12:46:43;;;;;;;32.75;19.65;;;1.30;99.90;;;;;;5034899;28;20445;-65
2023/12/05 12:49:10;;;;;;;27.90;18.70;;;1.40;99.90;;;;;;5034192;28;20049;-65
2023/12/05 12:51:40;;;;;;;30.42;18.88;;;1.40;99.90;;;;;;5033458;28;20133;-64